^^

Nearby METAR Reports

 

EGNV - Tees-Side, United Kingdom
Distance from station: SW 7mi, 11km
Updated: 26/04/2017 22:50
NOT Current
Clear
Clear
 Wind from W
Wind: W 5 mph , 7 km/h
Temperature: 4°C
Wind Chill: 2°C
Dew Point: 1°C
Humidity: 81%
Barometer: 1020 hPa
Summary: Clear
Visibility: greater than 7 miles , 10 km
2017/04/26 21:50 EGNV 262150Z 26004KT CAVOK 04/01 Q1020
EGXE - Leeming Raf, United Kingdom
Distance from station: SSW 23mi, 37km
Updated: 27/04/2017 01:50
Overcast
Overcast
 Wind from WSW
Wind: WSW 5 mph , 7 km/h
Temperature: 3°C
Wind Chill: 1°C
Dew Point: 0°C
Humidity: 81%
Barometer: 1019 hPa
Clouds: Overcast
Visibility: 6 miles , 10 km
Cloud details: Overcast 1524 m
2017/04/27 00:50 EGXE 270050Z AUTO 25004KT 9999 OVC050/// 03/M00 Q1019
 
EGXZ - Topcliffe Raf, United Kingdom
Distance from station: S 27mi, 43km
Updated: 27/04/2017 01:50
Overcast
Overcast
 Wind from S
Wind: S 3 mph , 6 km/h
Temperature: 3°C
Dew Point: 1°C
Humidity: 87%
Barometer: 1019 hPa
Clouds: Overcast
Visibility: 6 miles , 10 km
Cloud details: Overcast 1829 m
2017/04/27 00:50 EGXZ 270050Z AUTO 17003KT 9999 OVC060/// 03/01 Q1019
EGXD - Dishforth Raf, United Kingdom
Distance from station: S 32mi, 51km
Updated: 06/06/2016 10:50
NOT Current
Clear
Clear
 Wind from SSE
Wind: SSE 5 mph , 7 km/h
Temperature: 18°C
Dew Point: 11°C
Humidity: 64%
Barometer: 1023 hPa
Clouds: Clear
Visibility: 6 miles , 10 km
2016/06/06 09:50 EGXD 060950Z AUTO 16004KT 9999 // NCD 18/11 Q1023
 
EGNT - Newcastle, United Kingdom
Distance from station: NNW 34mi, 54km
Updated: 27/04/2017 01:50
Clear
Clear
 Wind from W
Wind: W 9 mph , 15 km/h
Temperature: 4°C
Wind Chill: 1°C
Dew Point: 1°C
Humidity: 81%
Barometer: 1018 hPa
Summary: Clear
Visibility: greater than 7 miles , 10 km
2017/04/27 00:50 EGNT 270050Z 27008KT CAVOK 04/01 Q1018
EGXU - Linton-On-Ouse R, United Kingdom
Distance from station: S 37mi, 60km
Updated: 27/04/2017 01:50
Overcast
Overcast
 Wind from WSW
Wind: WSW 5 mph , 7 km/h
Temperature: 4°C
Wind Chill: 2°C
Dew Point: 4°C
Humidity: 100%
Barometer: 1019 hPa
Clouds: Overcast
Visibility: 6 miles , 10 km
Cloud details: Overcast 1829 m
2017/04/27 00:50 EGXU 270050Z AUTO 24004KT 9999 // OVC060/// 04/04 Q1019
 
EGNM - Leeds And Bradfo, United Kingdom
Distance from station: SSW 52mi, 83km
Updated: 27/04/2017 01:50
Clear
Clear
 Wind from W
Wind: W 8 mph , 13 km/h
Temperature: 3°C
Wind Chill: -1°C
Dew Point: 0°C
Humidity: 81%
Barometer: 1019 hPa
Summary: Clear
Visibility: greater than 7 miles , 10 km
2017/04/27 00:50 EGNM 270050Z 26007KT 190V280 CAVOK 03/00 Q1019
EGXG - Church Fenton Ra, United Kingdom
Distance from station: S 52mi, 84km
Updated: 19/12/2013 08:50
NOT Current
Clear
Clear
 Wind from SW
Wind: SW 16 mph , 26 km/h
Temperature: 4°C
Wind Chill: -1°C
Dew Point: -1°C
Humidity: 70%
Barometer: 996 hPa
Clouds: Clear
Visibility: 6 miles , 10 km
2013/12/19 08:50 EGXG 190850Z AUTO 23014KT 9999 NCD 04/M01 Q0996
 
EGOM - Spadeadam, United Kingdom
Distance from station: WNW 58mi, 94km
Updated: 27/04/2017 01:50
Overcast
Overcast
 Wind from WSW
Wind: WSW 10 mph , 17 km/h
Temperature: 2°C
Wind Chill: -2°C
Dew Point: 0°C
Humidity: 87%
Barometer: 1017 hPa
Clouds: Overcast
Visibility: 6 miles , 10 km
Cloud details: Overcast 1829 m
2017/04/27 00:50 EGOM 270050Z AUTO 25009KT 9999 OVC060/// 02/00 Q1017
EGNC - Carlisle, United Kingdom
Distance from station: WNW 65mi, 105km
Updated: 26/04/2017 17:50
NOT Current
Mostly cloudy
Mostly cloudy
 Wind from NW
Wind: NW 2 mph , 4 km/h
Temperature: 7°C
Dew Point: -2°C
Humidity: 53%
Barometer: 1020 hPa
Clouds: Mostly cloudy
Visibility: 6 miles , 10 km
Cloud details: Few Clouds 914 m
Mostly cloudy 1372 m
2017/04/26 16:50 EGNC 261650Z 31002KT 9999 FEW030 BKN045 07/M02 Q1020
 
EGCN - Doncaster Sheffi, United Kingdom
Distance from station: S 77mi, 124km
Updated: 27/04/2017 01:50
Clear
Clear
 Wind from SW
Wind: SW 3 mph , 6 km/h
Temperature: 1°C
Dew Point: -1°C
Humidity: 87%
Barometer: 1021 hPa
Summary: Clear
Visibility: greater than 7 miles , 10 km
2017/04/27 00:50 EGCN 270050Z 22003KT CAVOK 01/M01 Q1021
EGNJ - Humberside, United Kingdom
Distance from station: SSE 80mi, 129km
Updated: 27/04/2017 01:50
Clear
Clear
 Wind from SSW
Wind: SSW 5 mph , 7 km/h
Temperature: 2°C
Wind Chill: 0°C
Dew Point: 1°C
Humidity: 93%
Barometer: 1020 hPa
Clouds: Clear
Visibility: 6 miles , 10 km
2017/04/27 00:50 EGNJ 270050Z AUTO 21004KT 9999 NCD 02/01 Q1020
 
EGNH - Blackpool Airpor, United Kingdom
Distance from station: SW 90mi, 145km
Updated: 26/04/2017 20:50
NOT Current
Clear
Clear
 Wind from NNW
Wind: NNW 13 mph , 20 km/h
Temperature: 7°C
Wind Chill: 4°C
Dew Point: -1°C
Humidity: 57%
Barometer: 1021 hPa
Summary: Clear
Visibility: greater than 7 miles , 10 km
2017/04/26 19:50 EGNH 261950Z 33011KT CAVOK 07/M01 Q1021
EGXP - Scampton Raf, United Kingdom
Distance from station: SSE 94mi, 151km
Updated: 27/04/2017 01:50
Few Clouds
Few Clouds
 Wind from WSW
Wind: WSW 7 mph , 11 km/h
Temperature: 0°C
Wind Chill: -4°C
Dew Point: -2°C
Humidity: 87%
Barometer: 1019 hPa
Clouds: Few Clouds
Visibility: 6 miles , 10 km
Cloud details: Few Clouds 1829 m
2017/04/27 00:50 EGXP 270050Z AUTO 25006KT 9999 // FEW060/// M00/M02 Q1019
 
EGCC - Manchester Intl, United Kingdom
Distance from station: SSW 94mi, 152km
Updated: 27/04/2017 01:50
Clear
Clear
 Wind from SSE
Wind: SSE 3 mph , 6 km/h
Temperature: 0°C
Dew Point: -2°C
Humidity: 87%
Barometer: 1020 hPa
Clouds: Clear
Visibility: 6 miles , 10 km
2017/04/27 00:50 EGCC 270050Z AUTO 15003KT 9999 NCD 00/M02 Q1020 NOSIG
EGOW - Woodvale Raf, United Kingdom
Distance from station: SW 100mi, 160km
Updated: 26/04/2017 16:50
NOT Current
Few Clouds
Few Clouds
 Wind from NW
Wind: NW 16 mph , 26 km/h
Temperature: 9°C
Wind Chill: 6°C
Dew Point: -2°C
Humidity: 46%
Barometer: 1020 hPa
Clouds: Few Clouds
Visibility: 6 miles , 10 km
Cloud details: Few Clouds 1219 m
2017/04/26 15:50 EGOW 261550Z 31014KT 9999 FEW040 09/M02 Q1020 BLU